createdAt,value
2023-04-27T00:04:37.774Z,101744.75
2023-04-27T00:09:58.568Z,101755.09
2023-04-27T00:15:19.362Z,101760.97
2023-04-27T00:20:40.750Z,101754.09
2023-04-27T00:26:01.829Z,101748.31
2023-04-27T00:31:22.405Z,101750.78
2023-04-27T00:36:43.435Z,101754.16
2023-04-27T00:42:04.035Z,101756.38
2023-04-27T00:47:25.097Z,101755.72
2023-04-27T00:52:46.015Z,101756.66
2023-04-27T00:58:06.642Z,101747.03
2023-04-27T01:03:27.337Z,101756.50
2023-04-27T01:08:48.271Z,101760.66
2023-04-27T01:14:08.834Z,101753.28
2023-04-27T01:19:29.594Z,101757.66
2023-04-27T01:24:50.097Z,101741.56
2023-04-27T01:30:11.114Z,101756.88
2023-04-27T01:35:31.695Z,101761.97
2023-04-27T01:41:01.949Z,101767.13
2023-04-27T01:46:24.620Z,101769.56
2023-04-27T01:51:45.228Z,101758.91
2023-04-27T01:57:05.905Z,101765.66
2023-04-27T02:02:27.769Z,101767.47
2023-04-27T02:07:49.449Z,101767.47
2023-04-27T02:13:10.029Z,101764.78
2023-04-27T02:18:32.332Z,101753.06
2023-04-27T02:23:52.869Z,101760.19
2023-04-27T02:29:13.881Z,101761.16
2023-04-27T02:34:35.981Z,101773.19
2023-04-27T02:39:57.185Z,101763.19
2023-04-27T02:45:17.953Z,101758.84
2023-04-27T02:50:44.345Z,101769.47
2023-04-27T02:56:05.245Z,101780.91
2023-04-27T03:01:25.777Z,101780.97
2023-04-27T03:06:46.256Z,101782.06
2023-04-27T03:12:07.765Z,101764.94
2023-04-27T03:17:28.818Z,101774.41
2023-04-27T03:22:49.841Z,101781.16
2023-04-27T03:28:12.755Z,101773.75
2023-04-27T03:33:34.001Z,101772.13
2023-04-27T03:38:55.038Z,101775.50
2023-04-27T03:44:15.744Z,101766.38
2023-04-27T03:49:36.497Z,101767.25
2023-04-27T03:54:57.262Z,101770.66
2023-04-27T04:00:18.712Z,101777.38
2023-04-27T04:05:43.184Z,101784.97
2023-04-27T04:11:04.010Z,101780.88
2023-04-27T04:16:24.876Z,101782.50
2023-04-27T04:21:46.901Z,101780.72
2023-04-27T04:27:07.843Z,101785.16
2023-04-27T04:32:29.868Z,101785.16
2023-04-27T04:37:50.459Z,101798.00
2023-04-27T04:43:11.116Z,101796.41
2023-04-27T04:48:32.323Z,101791.25
2023-04-27T04:53:52.906Z,101800.72
2023-04-27T04:59:13.812Z,101788.81
2023-04-27T05:04:34.356Z,101787.25
2023-04-27T05:09:55.083Z,101794.06
2023-04-27T05:15:15.964Z,101806.13
2023-04-27T05:20:37.362Z,101812.06
2023-04-27T05:25:57.905Z,101820.66
2023-04-27T05:31:18.623Z,101811.44
2023-04-27T05:36:39.404Z,101813.19
2023-04-27T05:41:59.979Z,101831.09
2023-04-27T05:47:21.147Z,101832.00
2023-04-27T05:52:41.896Z,101824.41
2023-04-27T05:58:08.464Z,101832.13
2023-04-27T06:03:31.238Z,101839.19
2023-04-27T06:08:52.753Z,101839.59
2023-04-27T06:15:30.029Z,101831.22
2023-04-27T06:20:50.415Z,101851.53
2023-04-27T06:26:11.057Z,101852.41
2023-04-27T06:31:31.731Z,101851.69
2023-04-27T06:36:52.354Z,101853.63
2023-04-27T06:42:12.994Z,101856.28
2023-04-27T06:47:33.708Z,101850.13
2023-04-27T06:52:54.155Z,101866.25
2023-04-27T06:58:15.232Z,101863.00
2023-04-27T07:03:36.585Z,101867.31
2023-04-27T07:08:57.598Z,101864.13
2023-04-27T07:14:17.902Z,101862.47
2023-04-27T07:19:39.057Z,101883.78
2023-04-27T07:25:00.276Z,101873.50
2023-04-27T07:30:21.540Z,101883.66
2023-04-27T07:35:42.367Z,101884.81
2023-04-27T07:41:03.047Z,101898.53
2023-04-27T07:46:23.763Z,101887.19
2023-04-27T07:51:44.448Z,101893.38
2023-04-27T07:57:10.198Z,101893.50
2023-04-27T08:02:31.662Z,101902.00
2023-04-27T08:07:54.190Z,101913.91
2023-04-27T08:13:15.185Z,101907.94
2023-04-27T08:18:36.039Z,101912.25
2023-04-27T08:23:56.743Z,101907.22
2023-04-27T08:29:27.187Z,101916.63
2023-04-27T08:34:48.985Z,101915.78
2023-04-27T08:40:10.879Z,101909.78
2023-04-27T08:45:31.540Z,101914.91
2023-04-27T08:50:53.867Z,101918.28
2023-04-27T08:56:14.368Z,101925.19
2023-04-27T09:01:35.134Z,101920.00
2023-04-27T09:06:56.313Z,101926.84
2023-04-27T09:12:18.898Z,101925.13
2023-04-27T09:17:39.383Z,101927.72
2023-04-27T09:23:00.292Z,101938.81
2023-04-27T09:28:20.946Z,101929.44
2023-04-27T09:33:41.358Z,101931.97
2023-04-27T09:39:05.241Z,101925.16
2023-04-27T09:44:28.239Z,101931.91
2023-04-27T09:49:50.905Z,101927.41
2023-04-27T09:55:16.577Z,101928.06
2023-04-27T10:01:12.800Z,101935.28
2023-04-27T10:06:52.061Z,101933.56
2023-04-27T10:12:15.015Z,101947.16
2023-04-27T10:17:36.750Z,101938.72
2023-04-27T10:22:58.862Z,101939.50
2023-04-27T10:28:21.213Z,101939.44
2023-04-27T10:33:46.158Z,101943.44
2023-04-27T10:39:17.752Z,101942.69
2023-04-27T10:44:39.147Z,101949.38
2023-04-27T10:50:00.262Z,101954.84
2023-04-27T10:55:22.780Z,101948.69
2023-04-27T11:00:44.518Z,101948.31
2023-04-27T11:06:06.598Z,101963.69
2023-04-27T11:11:27.229Z,101951.34
2023-04-27T11:16:48.754Z,101966.75
2023-04-27T11:22:09.437Z,101967.09
2023-04-27T11:27:38.529Z,101959.91
2023-04-27T11:32:59.368Z,101966.53
2023-04-27T11:38:21.724Z,101963.41
2023-04-27T11:43:49.236Z,101967.88
2023-04-27T11:49:09.676Z,101972.34
2023-04-27T11:54:30.375Z,101977.38
2023-04-27T11:59:50.960Z,101988.44
2023-04-27T12:05:13.176Z,101999.44
2023-04-27T12:10:34.447Z,101996.06
2023-04-27T12:15:54.851Z,101992.31
2023-04-27T12:21:15.809Z,101996.94
2023-04-27T12:26:36.678Z,102009.34
2023-04-27T12:31:57.168Z,101994.19
2023-04-27T12:37:17.842Z,102002.34
2023-04-27T12:42:38.277Z,102011.25
2023-04-27T12:48:03.869Z,102020.31
2023-04-27T12:53:25.077Z,102006.44
2023-04-27T12:58:46.264Z,102021.53
2023-04-27T13:04:07.376Z,102008.84
2023-04-27T13:09:28.088Z,102019.09
2023-04-27T13:14:48.796Z,102017.56
2023-04-27T13:20:10.080Z,102031.66
2023-04-27T13:25:30.750Z,102023.03
2023-04-27T13:30:52.019Z,102022.91
2023-04-27T13:36:13.225Z,102013.84
2023-04-27T13:41:34.906Z,102009.16
2023-04-27T13:46:55.449Z,102013.94
2023-04-27T13:52:16.144Z,102008.38
2023-04-27T13:57:37.897Z,102014.31
2023-04-27T14:02:58.476Z,102012.19
2023-04-27T14:08:19.399Z,102027.22
2023-04-27T14:13:40.388Z,102013.22
2023-04-27T14:19:01.006Z,102013.06
2023-04-27T14:24:21.678Z,102006.53
2023-04-27T14:29:42.152Z,102010.13
2023-04-27T14:35:03.518Z,102013.63
2023-04-27T14:40:24.124Z,102009.78
2023-04-27T14:45:51.538Z,102000.56
2023-04-27T14:51:14.887Z,101993.47
2023-04-27T14:56:36.641Z,101992.13
2023-04-27T15:01:57.226Z,101999.28
2023-04-27T15:07:20.063Z,101994.81
2023-04-27T15:12:40.742Z,101994.97
2023-04-27T15:18:01.996Z,101983.97
2023-04-27T15:23:23.705Z,101988.03
2023-04-27T15:28:44.239Z,101983.72
2023-04-27T15:34:04.968Z,101977.03
2023-04-27T15:39:25.336Z,101978.75
2023-04-27T15:44:46.139Z,101967.22
2023-04-27T15:50:06.816Z,101973.56
2023-04-27T15:55:27.175Z,101981.34
2023-04-27T16:00:47.732Z,101974.09
2023-04-27T16:06:08.120Z,101979.84
2023-04-27T16:11:28.423Z,101980.31
2023-04-27T16:16:51.242Z,101988.56
2023-04-27T16:22:12.234Z,101979.50
2023-04-27T16:27:32.834Z,101975.59
2023-04-27T16:32:53.310Z,101977.38
2023-04-27T16:38:14.109Z,101982.88
2023-04-27T16:43:34.721Z,101985.38
2023-04-27T16:48:55.849Z,101965.84
2023-04-27T16:54:16.638Z,101977.97
2023-04-27T16:59:37.524Z,101975.66
2023-04-27T17:04:59.536Z,101970.13
2023-04-27T17:10:19.793Z,101970.41
2023-04-27T17:15:40.337Z,101965.06
2023-04-27T17:21:00.838Z,101967.94
2023-04-27T17:26:21.681Z,101975.00
2023-04-27T17:31:42.669Z,101970.69
2023-04-27T17:37:03.421Z,101972.41
2023-04-27T17:42:24.007Z,101970.03
2023-04-27T17:47:44.523Z,101976.19
2023-04-27T17:53:04.967Z,101964.25
2023-04-27T17:58:25.589Z,101957.41
2023-04-27T18:03:46.316Z,101954.88
2023-04-27T18:09:06.700Z,101949.78
2023-04-27T18:14:27.437Z,101949.03
2023-04-27T18:19:57.941Z,101951.63
2023-04-27T18:25:25.949Z,101942.19
2023-04-27T18:30:46.547Z,101949.09
2023-04-27T18:36:07.898Z,101961.06
2023-04-27T18:41:28.238Z,101950.81
2023-04-27T18:46:48.802Z,101941.41
2023-04-27T18:52:11.447Z,101951.63
2023-04-27T18:57:31.832Z,101964.44
2023-04-27T19:02:52.645Z,101964.44
2023-04-27T19:08:13.465Z,101971.25
2023-04-27T19:13:34.069Z,101961.78
2023-04-27T19:18:54.432Z,101956.66
2023-04-27T19:24:14.952Z,101958.34
2023-04-27T19:29:58.159Z,101965.13
2023-04-27T19:35:20.177Z,101958.28
2023-04-27T19:40:40.745Z,101967.63
2023-04-27T19:46:01.921Z,101964.22
2023-04-27T19:51:23.086Z,101972.72
2023-04-27T19:56:43.339Z,101969.28
2023-04-27T20:02:04.289Z,101978.63
2023-04-27T20:07:24.997Z,101970.94
2023-04-27T20:12:56.298Z,101977.66
2023-04-27T20:18:17.688Z,101969.97
2023-04-27T20:23:38.607Z,101969.94
2023-04-27T20:28:59.227Z,101960.50
2023-04-27T20:34:19.960Z,101968.19
2023-04-27T20:39:40.290Z,101959.56
2023-04-27T20:45:00.710Z,101956.88
2023-04-27T20:50:21.080Z,101956.84
2023-04-27T20:55:42.646Z,101945.72
2023-04-27T21:01:03.313Z,101949.06
2023-04-27T21:06:24.420Z,101946.41
2023-04-27T21:11:45.129Z,101948.00
2023-04-27T21:17:06.116Z,101950.34
2023-04-27T21:22:27.842Z,101945.13
2023-04-27T21:27:48.630Z,101935.59
2023-04-27T21:33:09.418Z,101922.59
2023-04-27T21:38:30.127Z,101923.91
2023-04-27T21:43:51.177Z,101917.97
2023-04-27T21:49:11.824Z,101915.53
2023-04-27T21:54:32.469Z,101910.38
2023-04-27T21:59:53.066Z,101903.50
2023-04-27T22:05:14.314Z,101898.28
2023-04-27T22:10:35.041Z,101901.56
2023-04-27T22:15:56.049Z,101896.66
2023-04-27T22:21:16.890Z,101889.00
2023-04-27T22:26:37.515Z,101881.44
2023-04-27T22:31:58.004Z,101872.84
2023-04-27T22:37:18.389Z,101867.63
2023-04-27T22:42:39.116Z,101858.97
2023-04-27T22:47:59.858Z,101874.03
2023-04-27T22:53:21.067Z,101867.09
2023-04-27T22:58:41.628Z,101874.78
2023-04-27T23:04:02.502Z,101870.66
2023-04-27T23:09:22.696Z,101864.72
2023-04-27T23:14:43.412Z,101861.44
2023-04-27T23:20:24.186Z,101857.22
2023-04-27T23:25:48.176Z,101845.25
2023-04-27T23:31:09.037Z,101843.59
2023-04-27T23:36:29.447Z,101840.31
2023-04-27T23:41:50.050Z,101850.66
2023-04-27T23:47:10.343Z,101841.50
2023-04-27T23:52:30.724Z,101837.34
2023-04-27T23:57:52.330Z,101841.75
